Santanyi, Spain
Current Conditions -  °F | °C
As of 11:30 AM on Wednesday 22 Oct 2014 (Local Time) from LEPA Reporting Station
Scattered Clouds Scattered Clouds  
Wind Chill: 72°   Ceiling: Unl
Heat Index: 72°   Visibility: 6mi
Dew Point: 59°   Wind: 20mph
Humidity: 64%   Direction: 60°ENE
Pressure: 30.21"   Gusts: NA
Location:  39.35°N, 3.13°E
Report Text: LEPA 220930Z 06017KT 9000 FEW024 SCT036 22/15 Q1023 NOSIG
Loading
Personal Weather Stations






























Interactive Weather Map
Tropical Storm Tracking
New forecast layout! Learn more

10-Day Weather Forecast

Advertisements
Track Severe Weather on mobile